CheckWX is a tool to help pilots better visualize weather data.  It is not intended as a substitute for an official pre-flight weather briefing.

17:12:14 UTC

KCHD METAR
Chandler Municipal Airport
Chandler, Arizona, USA
Current

25 mins ago

KCHD 161647Z 22005KT 10SM SCT120 BKN180 32/16 A2993
Observed
Sep-16 @ 16:47 UTC
Wind
  • 220° at 5 KTS
Visibility
10 SM
Flight Rules
VFR
Cloud Levels
  • Scattered at 12,000' AGL
  • Broken at 18,000' AGL
Temperature
32°C / 90°F
Dewpoint
16°C / 61°F
Humidity
38%
Altimeter
29.93" Hg
Pressure
1013.52 hPa
Previous

1 hour ago

KCHD 161547Z 00000KT 10SM SCT120 SCT180 31/18 A2994
Observed
Sep-16 @ 15:47 UTC
Visibility
10 SM
Flight Rules
VFR
Cloud Levels
  • Scattered at 12,000' AGL
  • Scattered at 18,000' AGL
Temperature
31°C / 88°F
Dewpoint
18°C / 64°F
Heat Index
32°C / 90°F
Humidity
46%
Altimeter
29.94" Hg
Pressure
1013.92 hPa
Previous

2 hours ago

KCHD 161447Z 11005KT 10SM SCT120 SCT180 30/17 A2992
Observed
Sep-16 @ 14:47 UTC
Wind
  • 110° at 5 KTS
Visibility
10 SM
Flight Rules
VFR
Cloud Levels
  • Scattered at 12,000' AGL
  • Scattered at 18,000' AGL
Temperature
30°C / 86°F
Dewpoint
17°C / 63°F
Heat Index
31°C / 87°F
Humidity
46%
Altimeter
29.92" Hg
Pressure
1013.22 hPa